Terminal Aerodrome Forecast
Issued by NWS Louisville, KY

Home | Current Version | Previous Version | Text Only | Print | Product List | Glossary On
Versions: 1 2 3 4 5 6 7 8 9 10 11 12 13 14 15 16 17 18
000
FTUS43 KLMK 301120
TAFBWG
TAF
KBWG 301120Z 3012/3112 15009KT P6SM BKN150
     FM301500 17017G20KT P6SM BKN035
     FM301800 19020G26KT P6SM VCTS BKN035CB
     FM302200 19015G22KT P6SM -SHRA VCTS BKN035CB
     FM310000 23010KT 5SM -TSRA BKN035CB
      TEMPO 3100/3103 3SM -TSRA BKN025CB
     FM310600 26008KT P6SM SCT015 BKN035=

USA.gov is the U.S. government's official web portal to all federal, state and local government web resources and services.